sensor_id;sensor_type;location;lat;lon;timestamp;P1;durP1;ratioP1;P2;durP2;ratioP2
43998;SDS011;51319;52.162;5.302;2022-10-29T00:00:42;28.73;;;6.40;;
43998;SDS011;51319;52.162;5.302;2022-10-29T00:03:08;30.45;;;6.03;;
43998;SDS011;51319;52.162;5.302;2022-10-29T00:05:34;36.28;;;7.40;;
43998;SDS011;51319;52.162;5.302;2022-10-29T00:08:01;28.80;;;5.70;;
43998;SDS011;51319;52.162;5.302;2022-10-29T00:10:27;25.50;;;5.53;;
43998;SDS011;51319;52.162;5.302;2022-10-29T00:12:53;31.20;;;6.10;;
43998;SDS011;51319;52.162;5.302;2022-10-29T00:15:20;23.58;;;5.32;;
43998;SDS011;51319;52.162;5.302;2022-10-29T00:17:46;29.45;;;5.85;;
43998;SDS011;51319;52.162;5.302;2022-10-29T00:20:12;28.38;;;5.38;;
43998;SDS011;51319;52.162;5.302;2022-10-29T00:22:38;27.08;;;6.05;;
43998;SDS011;51319;52.162;5.302;2022-10-29T00:25:04;32.08;;;6.55;;
43998;SDS011;51319;52.162;5.302;2022-10-29T00:27:31;57.97;;;8.07;;
43998;SDS011;51319;52.162;5.302;2022-10-29T00:29:57;31.30;;;9.02;;
43998;SDS011;51319;52.162;5.302;2022-10-29T00:32:23;32.03;;;8.07;;
43998;SDS011;51319;52.162;5.302;2022-10-29T00:34:49;37.90;;;7.35;;
43998;SDS011;51319;52.162;5.302;2022-10-29T00:37:15;38.67;;;8.50;;
43998;SDS011;51319;52.162;5.302;2022-10-29T00:39:41;27.90;;;6.50;;
43998;SDS011;51319;52.162;5.302;2022-10-29T00:42:13;27.27;;;7.35;;
43998;SDS011;51319;52.162;5.302;2022-10-29T00:44:42;32.38;;;7.07;;
43998;SDS011;51319;52.162;5.302;2022-10-29T00:47:27;35.13;;;7.07;;
43998;SDS011;51319;52.162;5.302;2022-10-29T00:50:01;27.50;;;6.53;;
43998;SDS011;51319;52.162;5.302;2022-10-29T00:52:37;29.40;;;8.18;;
43998;SDS011;51319;52.162;5.302;2022-10-29T00:55:08;28.60;;;6.93;;
43998;SDS011;51319;52.162;5.302;2022-10-29T00:57:37;34.63;;;8.20;;
43998;SDS011;51319;52.162;5.302;2022-10-29T01:00:06;38.70;;;8.80;;
43998;SDS011;51319;52.162;5.302;2022-10-29T01:02:33;30.20;;;8.23;;
43998;SDS011;51319;52.162;5.302;2022-10-29T01:05:01;40.75;;;8.18;;
43998;SDS011;51319;52.162;5.302;2022-10-29T01:07:28;35.17;;;7.82;;
43998;SDS011;51319;52.162;5.302;2022-10-29T01:09:54;54.53;;;8.20;;
43998;SDS011;51319;52.162;5.302;2022-10-29T01:12:28;36.35;;;8.73;;
43998;SDS011;51319;52.162;5.302;2022-10-29T01:23:35;30.85;;;8.02;;
43998;SDS011;51319;52.162;5.302;2022-10-29T01:26:32;31.60;;;7.80;;
43998;SDS011;51319;52.162;5.302;2022-10-29T01:35:27;26.30;;;6.70;;
43998;SDS011;51319;52.162;5.302;2022-10-29T01:43:57;32.78;;;7.32;;
43998;SDS011;51319;52.162;5.302;2022-10-29T01:46:34;27.55;;;6.22;;
43998;SDS011;51319;52.162;5.302;2022-10-29T01:49:06;34.13;;;7.88;;
43998;SDS011;51319;52.162;5.302;2022-10-29T01:51:40;35.53;;;7.30;;
43998;SDS011;51319;52.162;5.302;2022-10-29T01:54:09;32.72;;;8.20;;
43998;SDS011;51319;52.162;5.302;2022-10-29T01:56:36;35.50;;;7.68;;
43998;SDS011;51319;52.162;5.302;2022-10-29T01:59:04;35.85;;;7.35;;
43998;SDS011;51319;52.162;5.302;2022-10-29T02:10:31;42.85;;;9.75;;
43998;SDS011;51319;52.162;5.302;2022-10-29T02:13:03;32.25;;;8.73;;
43998;SDS011;51319;52.162;5.302;2022-10-29T02:15:36;38.38;;;8.88;;
43998;SDS011;51319;52.162;5.302;2022-10-29T02:18:08;35.80;;;7.68;;
43998;SDS011;51319;52.162;5.302;2022-10-29T02:20:34;33.78;;;9.30;;
43998;SDS011;51319;52.162;5.302;2022-10-29T02:23:05;29.60;;;10.13;;
43998;SDS011;51319;52.162;5.302;2022-10-29T02:25:31;38.03;;;9.93;;
43998;SDS011;51319;52.162;5.302;2022-10-29T02:27:59;37.22;;;10.75;;
43998;SDS011;51319;52.162;5.302;2022-10-29T02:30:25;31.42;;;9.30;;
43998;SDS011;51319;52.162;5.302;2022-10-29T02:32:51;36.13;;;8.68;;
43998;SDS011;51319;52.162;5.302;2022-10-29T02:35:17;29.23;;;9.13;;
43998;SDS011;51319;52.162;5.302;2022-10-29T02:37:43;38.55;;;10.05;;
43998;SDS011;51319;52.162;5.302;2022-10-29T02:40:09;43.15;;;10.60;;
43998;SDS011;51319;52.162;5.302;2022-10-29T02:42:36;38.58;;;9.77;;
43998;SDS011;51319;52.162;5.302;2022-10-29T02:45:02;33.25;;;9.13;;
43998;SDS011;51319;52.162;5.302;2022-10-29T02:47:28;28.23;;;8.70;;
43998;SDS011;51319;52.162;5.302;2022-10-29T02:49:54;48.25;;;10.60;;
43998;SDS011;51319;52.162;5.302;2022-10-29T02:52:20;36.83;;;9.55;;
43998;SDS011;51319;52.162;5.302;2022-10-29T02:54:47;30.83;;;8.05;;
43998;SDS011;51319;52.162;5.302;2022-10-29T02:57:13;27.27;;;9.32;;
43998;SDS011;51319;52.162;5.302;2022-10-29T02:59:39;35.65;;;9.02;;
43998;SDS011;51319;52.162;5.302;2022-10-29T03:02:05;42.97;;;9.02;;
43998;SDS011;51319;52.162;5.302;2022-10-29T03:04:31;31.50;;;8.15;;
43998;SDS011;51319;52.162;5.302;2022-10-29T03:06:57;29.25;;;9.50;;
43998;SDS011;51319;52.162;5.302;2022-10-29T03:09:24;35.72;;;9.38;;
43998;SDS011;51319;52.162;5.302;2022-10-29T03:11:50;40.65;;;10.93;;
43998;SDS011;51319;52.162;5.302;2022-10-29T03:14:16;27.23;;;8.30;;
43998;SDS011;51319;52.162;5.302;2022-10-29T03:16:42;33.13;;;11.20;;
43998;SDS011;51319;52.162;5.302;2022-10-29T03:19:08;32.40;;;9.68;;
43998;SDS011;51319;52.162;5.302;2022-10-29T03:21:35;36.22;;;9.77;;
43998;SDS011;51319;52.162;5.302;2022-10-29T03:24:01;23.52;;;8.30;;
43998;SDS011;51319;52.162;5.302;2022-10-29T03:26:27;34.08;;;8.50;;
43998;SDS011;51319;52.162;5.302;2022-10-29T03:28:54;33.22;;;8.80;;
43998;SDS011;51319;52.162;5.302;2022-10-29T03:31:20;32.40;;;9.02;;
43998;SDS011;51319;52.162;5.302;2022-10-29T03:33:46;29.15;;;8.77;;
43998;SDS011;51319;52.162;5.302;2022-10-29T03:36:12;29.23;;;9.50;;
43998;SDS011;51319;52.162;5.302;2022-10-29T03:38:39;36.72;;;10.10;;
43998;SDS011;51319;52.162;5.302;2022-10-29T03:41:05;35.75;;;9.02;;
43998;SDS011;51319;52.162;5.302;2022-10-29T03:43:37;29.77;;;9.35;;
43998;SDS011;51319;52.162;5.302;2022-10-29T03:46:04;36.00;;;9.75;;
43998;SDS011;51319;52.162;5.302;2022-10-29T03:48:31;31.48;;;9.60;;
43998;SDS011;51319;52.162;5.302;2022-10-29T03:50:58;34.15;;;9.63;;
43998;SDS011;51319;52.162;5.302;2022-10-29T03:53:26;33.42;;;10.32;;
43998;SDS011;51319;52.162;5.302;2022-10-29T03:55:53;39.80;;;11.32;;
43998;SDS011;51319;52.162;5.302;2022-10-29T03:58:20;33.30;;;11.93;;
43998;SDS011;51319;52.162;5.302;2022-10-29T04:01:00;43.17;;;11.90;;
43998;SDS011;51319;52.162;5.302;2022-10-29T04:03:30;51.13;;;12.68;;
43998;SDS011;51319;52.162;5.302;2022-10-29T04:05:58;53.95;;;12.90;;
43998;SDS011;51319;52.162;5.302;2022-10-29T04:08:26;41.72;;;11.57;;
43998;SDS011;51319;52.162;5.302;2022-10-29T04:10:52;42.65;;;11.88;;
43998;SDS011;51319;52.162;5.302;2022-10-29T04:13:18;34.53;;;11.20;;
43998;SDS011;51319;52.162;5.302;2022-10-29T04:15:45;33.47;;;12.45;;
43998;SDS011;51319;52.162;5.302;2022-10-29T04:18:11;42.22;;;12.27;;
43998;SDS011;51319;52.162;5.302;2022-10-29T04:20:38;28.13;;;10.40;;
43998;SDS011;51319;52.162;5.302;2022-10-29T04:23:25;29.48;;;11.35;;
43998;SDS011;51319;52.162;5.302;2022-10-29T04:26:11;29.23;;;11.20;;
43998;SDS011;51319;52.162;5.302;2022-10-29T04:28:57;28.92;;;11.45;;
43998;SDS011;51319;52.162;5.302;2022-10-29T04:31:23;40.78;;;12.55;;
43998;SDS011;51319;52.162;5.302;2022-10-29T04:33:51;40.25;;;12.75;;
43998;SDS011;51319;52.162;5.302;2022-10-29T04:36:18;34.13;;;11.95;;
43998;SDS011;51319;52.162;5.302;2022-10-29T04:38:44;39.40;;;14.32;;
43998;SDS011;51319;52.162;5.302;2022-10-29T04:41:10;47.00;;;14.45;;
43998;SDS011;51319;52.162;5.302;2022-10-29T04:43:36;46.55;;;15.10;;
43998;SDS011;51319;52.162;5.302;2022-10-29T04:46:02;45.40;;;14.65;;
43998;SDS011;51319;52.162;5.302;2022-10-29T04:48:28;42.38;;;14.35;;
43998;SDS011;51319;52.162;5.302;2022-10-29T04:50:54;48.65;;;16.25;;
43998;SDS011;51319;52.162;5.302;2022-10-29T04:53:20;37.00;;;14.02;;
43998;SDS011;51319;52.162;5.302;2022-10-29T04:55:47;42.78;;;15.73;;
43998;SDS011;51319;52.162;5.302;2022-10-29T04:58:17;36.95;;;13.77;;
43998;SDS011;51319;52.162;5.302;2022-10-29T05:03:10;48.00;;;16.35;;
43998;SDS011;51319;52.162;5.302;2022-10-29T05:05:37;43.70;;;14.75;;
43998;SDS011;51319;52.162;5.302;2022-10-29T05:08:04;40.05;;;16.00;;
43998;SDS011;51319;52.162;5.302;2022-10-29T05:10:32;47.67;;;17.42;;
43998;SDS011;51319;52.162;5.302;2022-10-29T05:13:04;42.55;;;16.10;;
43998;SDS011;51319;52.162;5.302;2022-10-29T05:15:37;38.80;;;14.48;;
43998;SDS011;51319;52.162;5.302;2022-10-29T05:18:04;37.35;;;16.17;;
43998;SDS011;51319;52.162;5.302;2022-10-29T05:20:34;38.85;;;16.27;;
43998;SDS011;51319;52.162;5.302;2022-10-29T05:23:01;43.85;;;16.90;;
43998;SDS011;51319;52.162;5.302;2022-10-29T05:25:32;34.88;;;14.73;;
43998;SDS011;51319;52.162;5.302;2022-10-29T05:28:13;35.05;;;15.50;;
43998;SDS011;51319;52.162;5.302;2022-10-29T05:30:43;43.20;;;16.70;;
43998;SDS011;51319;52.162;5.302;2022-10-29T05:33:11;38.60;;;15.95;;
43998;SDS011;51319;52.162;5.302;2022-10-29T05:35:39;40.20;;;15.65;;
43998;SDS011;51319;52.162;5.302;2022-10-29T05:38:06;41.35;;;16.98;;
43998;SDS011;51319;52.162;5.302;2022-10-29T05:40:32;36.08;;;17.13;;
43998;SDS011;51319;52.162;5.302;2022-10-29T05:42:58;33.70;;;15.85;;
43998;SDS011;51319;52.162;5.302;2022-10-29T05:45:25;33.60;;;16.45;;
43998;SDS011;51319;52.162;5.302;2022-10-29T05:47:55;38.75;;;18.15;;
43998;SDS011;51319;52.162;5.302;2022-10-29T05:50:25;34.15;;;17.00;;
43998;SDS011;51319;52.162;5.302;2022-10-29T05:52:59;35.58;;;16.77;;
43998;SDS011;51319;52.162;5.302;2022-10-29T05:55:27;37.38;;;17.30;;
43998;SDS011;51319;52.162;5.302;2022-10-29T05:57:57;33.15;;;17.50;;
43998;SDS011;51319;52.162;5.302;2022-10-29T06:00:25;40.75;;;18.13;;
43998;SDS011;51319;52.162;5.302;2022-10-29T06:02:52;33.72;;;17.15;;
43998;SDS011;51319;52.162;5.302;2022-10-29T06:05:19;31.90;;;17.10;;
43998;SDS011;51319;52.162;5.302;2022-10-29T06:07:45;27.50;;;15.75;;
43998;SDS011;51319;52.162;5.302;2022-10-29T06:10:17;31.13;;;16.85;;
43998;SDS011;51319;52.162;5.302;2022-10-29T06:12:43;34.75;;;17.58;;
43998;SDS011;51319;52.162;5.302;2022-10-29T06:15:09;34.22;;;17.30;;
43998;SDS011;51319;52.162;5.302;2022-10-29T06:17:39;33.33;;;16.77;;
43998;SDS011;51319;52.162;5.302;2022-10-29T06:20:10;27.17;;;16.73;;
43998;SDS011;51319;52.162;5.302;2022-10-29T06:22:54;32.85;;;17.20;;
43998;SDS011;51319;52.162;5.302;2022-10-29T06:25:22;44.55;;;22.95;;
43998;SDS011;51319;52.162;5.302;2022-10-29T06:27:58;36.33;;;18.90;;
43998;SDS011;51319;52.162;5.302;2022-10-29T06:30:31;40.08;;;21.92;;
43998;SDS011;51319;52.162;5.302;2022-10-29T06:32:59;44.85;;;20.75;;
43998;SDS011;51319;52.162;5.302;2022-10-29T06:35:26;53.55;;;22.75;;
43998;SDS011;51319;52.162;5.302;2022-10-29T06:37:53;49.80;;;22.08;;
43998;SDS011;51319;52.162;5.302;2022-10-29T06:40:20;47.53;;;22.13;;
43998;SDS011;51319;52.162;5.302;2022-10-29T06:42:46;46.97;;;23.23;;
43998;SDS011;51319;52.162;5.302;2022-10-29T06:45:14;49.90;;;23.48;;
43998;SDS011;51319;52.162;5.302;2022-10-29T06:47:44;47.10;;;22.38;;
43998;SDS011;51319;52.162;5.302;2022-10-29T06:50:11;41.95;;;21.27;;
43998;SDS011;51319;52.162;5.302;2022-10-29T06:52:38;42.95;;;19.95;;
43998;SDS011;51319;52.162;5.302;2022-10-29T06:55:04;43.65;;;21.88;;
43998;SDS011;51319;52.162;5.302;2022-10-29T06:57:31;36.35;;;19.95;;
43998;SDS011;51319;52.162;5.302;2022-10-29T06:59:57;36.20;;;20.00;;
43998;SDS011;51319;52.162;5.302;2022-10-29T07:02:30;37.80;;;19.48;;
43998;SDS011;51319;52.162;5.302;2022-10-29T07:04:56;43.70;;;21.23;;
43998;SDS011;51319;52.162;5.302;2022-10-29T07:07:23;49.47;;;21.88;;
43998;SDS011;51319;52.162;5.302;2022-10-29T07:09:52;41.90;;;20.42;;
43998;SDS011;51319;52.162;5.302;2022-10-29T07:12:18;53.13;;;22.02;;
43998;SDS011;51319;52.162;5.302;2022-10-29T07:14:44;45.70;;;22.05;;
43998;SDS011;51319;52.162;5.302;2022-10-29T07:17:10;47.88;;;23.50;;
43998;SDS011;51319;52.162;5.302;2022-10-29T07:19:37;59.30;;;25.77;;
43998;SDS011;51319;52.162;5.302;2022-10-29T07:22:03;51.92;;;23.23;;
43998;SDS011;51319;52.162;5.302;2022-10-29T07:24:31;49.47;;;23.35;;
43998;SDS011;51319;52.162;5.302;2022-10-29T07:26:57;52.95;;;24.75;;
43998;SDS011;51319;52.162;5.302;2022-10-29T07:29:23;49.35;;;23.10;;
43998;SDS011;51319;52.162;5.302;2022-10-29T07:31:49;55.60;;;24.90;;
43998;SDS011;51319;52.162;5.302;2022-10-29T07:34:21;46.70;;;23.90;;
43998;SDS011;51319;52.162;5.302;2022-10-29T07:36:47;51.88;;;25.30;;
43998;SDS011;51319;52.162;5.302;2022-10-29T07:39:13;55.03;;;24.90;;
43998;SDS011;51319;52.162;5.302;2022-10-29T07:41:40;48.10;;;18.75;;
43998;SDS011;51319;52.162;5.302;2022-10-29T07:44:07;50.42;;;22.80;;
43998;SDS011;51319;52.162;5.302;2022-10-29T07:46:34;48.97;;;21.15;;
43998;SDS011;51319;52.162;5.302;2022-10-29T07:49:00;44.40;;;21.00;;
43998;SDS011;51319;52.162;5.302;2022-10-29T07:51:26;40.13;;;18.20;;
43998;SDS011;51319;52.162;5.302;2022-10-29T07:53:52;47.15;;;18.40;;
43998;SDS011;51319;52.162;5.302;2022-10-29T07:56:18;37.92;;;17.13;;
43998;SDS011;51319;52.162;5.302;2022-10-29T07:58:45;37.38;;;16.70;;
43998;SDS011;51319;52.162;5.302;2022-10-29T08:01:11;43.72;;;16.70;;
43998;SDS011;51319;52.162;5.302;2022-10-29T08:03:37;35.80;;;16.85;;
43998;SDS011;51319;52.162;5.302;2022-10-29T08:06:03;41.50;;;16.27;;
43998;SDS011;51319;52.162;5.302;2022-10-29T08:08:30;27.90;;;15.80;;
43998;SDS011;51319;52.162;5.302;2022-10-29T08:11:08;35.13;;;16.42;;
43998;SDS011;51319;52.162;5.302;2022-10-29T08:13:34;34.47;;;15.27;;
43998;SDS011;51319;52.162;5.302;2022-10-29T08:16:00;37.38;;;17.13;;
43998;SDS011;51319;52.162;5.302;2022-10-29T08:18:27;35.80;;;16.63;;
43998;SDS011;51319;52.162;5.302;2022-10-29T08:20:53;32.50;;;15.77;;
43998;SDS011;51319;52.162;5.302;2022-10-29T08:23:19;32.65;;;16.45;;
43998;SDS011;51319;52.162;5.302;2022-10-29T08:25:45;28.52;;;15.10;;
43998;SDS011;51319;52.162;5.302;2022-10-29T08:28:12;35.60;;;17.02;;
43998;SDS011;51319;52.162;5.302;2022-10-29T08:30:47;28.48;;;13.38;;
43998;SDS011;51319;52.162;5.302;2022-10-29T08:33:14;30.95;;;11.80;;
43998;SDS011;51319;52.162;5.302;2022-10-29T08:35:41;22.77;;;11.63;;
43998;SDS011;51319;52.162;5.302;2022-10-29T08:38:08;16.58;;;10.02;;
43998;SDS011;51319;52.162;5.302;2022-10-29T08:43:18;25.70;;;10.27;;
43998;SDS011;51319;52.162;5.302;2022-10-29T08:49:01;23.10;;;10.13;;
43998;SDS011;51319;52.162;5.302;2022-10-29T08:51:34;20.60;;;10.40;;
43998;SDS011;51319;52.162;5.302;2022-10-29T08:54:04;25.17;;;10.27;;
43998;SDS011;51319;52.162;5.302;2022-10-29T08:56:58;29.92;;;11.43;;
43998;SDS011;51319;52.162;5.302;2022-10-29T08:59:31;19.85;;;10.10;;
43998;SDS011;51319;52.162;5.302;2022-10-29T09:02:07;19.60;;;10.13;;
43998;SDS011;51319;52.162;5.302;2022-10-29T09:04:39;22.98;;;10.65;;
43998;SDS011;51319;52.162;5.302;2022-10-29T09:07:30;25.73;;;10.43;;
43998;SDS011;51319;52.162;5.302;2022-10-29T09:10:16;19.98;;;11.10;;
43998;SDS011;51319;52.162;5.302;2022-10-29T09:24:42;22.13;;;12.38;;
43998;SDS011;51319;52.162;5.302;2022-10-29T09:27:36;29.73;;;11.85;;
43998;SDS011;51319;52.162;5.302;2022-10-29T09:30:20;23.23;;;12.98;;
43998;SDS011;51319;52.162;5.302;2022-10-29T09:35:43;19.38;;;10.18;;
43998;SDS011;51319;52.162;5.302;2022-10-29T09:38:18;22.40;;;11.00;;
43998;SDS011;51319;52.162;5.302;2022-10-29T09:40:47;20.90;;;11.07;;
43998;SDS011;51319;52.162;5.302;2022-10-29T09:45:56;30.38;;;11.20;;
43998;SDS011;51319;52.162;5.302;2022-10-29T09:54:16;22.48;;;9.77;;
43998;SDS011;51319;52.162;5.302;2022-10-29T09:56:53;21.23;;;10.02;;
43998;SDS011;51319;52.162;5.302;2022-10-29T09:59:34;26.15;;;9.60;;
43998;SDS011;51319;52.162;5.302;2022-10-29T10:05:00;26.35;;;10.55;;
43998;SDS011;51319;52.162;5.302;2022-10-29T10:07:31;26.15;;;10.88;;
43998;SDS011;51319;52.162;5.302;2022-10-29T10:09:59;26.58;;;10.98;;
43998;SDS011;51319;52.162;5.302;2022-10-29T10:15:22;26.20;;;9.93;;
43998;SDS011;51319;52.162;5.302;2022-10-29T10:17:51;26.63;;;10.13;;
43998;SDS011;51319;52.162;5.302;2022-10-29T10:25:41;17.42;;;9.48;;
43998;SDS011;51319;52.162;5.302;2022-10-29T10:28:15;19.48;;;8.93;;
43998;SDS011;51319;52.162;5.302;2022-10-29T10:31:04;24.85;;;8.48;;
43998;SDS011;51319;52.162;5.302;2022-10-29T10:33:58;23.30;;;8.85;;
43998;SDS011;51319;52.162;5.302;2022-10-29T10:36:32;19.42;;;8.57;;
43998;SDS011;51319;52.162;5.302;2022-10-29T10:39:03;22.42;;;8.55;;
43998;SDS011;51319;52.162;5.302;2022-10-29T10:41:29;18.10;;;8.35;;
43998;SDS011;51319;52.162;5.302;2022-10-29T10:43:59;21.65;;;7.20;;
43998;SDS011;51319;52.162;5.302;2022-10-29T10:46:30;33.28;;;8.27;;
43998;SDS011;51319;52.162;5.302;2022-10-29T10:49:06;24.90;;;8.45;;
43998;SDS011;51319;52.162;5.302;2022-10-29T10:51:43;24.45;;;7.93;;
43998;SDS011;51319;52.162;5.302;2022-10-29T10:54:27;18.33;;;7.88;;
43998;SDS011;51319;52.162;5.302;2022-10-29T10:57:02;21.65;;;7.30;;
43998;SDS011;51319;52.162;5.302;2022-10-29T10:59:53;20.80;;;7.53;;
43998;SDS011;51319;52.162;5.302;2022-10-29T11:04:59;17.85;;;6.65;;
43998;SDS011;51319;52.162;5.302;2022-10-29T11:08:03;16.13;;;5.68;;
43998;SDS011;51319;52.162;5.302;2022-10-29T11:10:37;22.05;;;5.57;;
43998;SDS011;51319;52.162;5.302;2022-10-29T11:13:19;17.42;;;5.78;;
43998;SDS011;51319;52.162;5.302;2022-10-29T11:15:56;20.50;;;9.15;;
43998;SDS011;51319;52.162;5.302;2022-10-29T11:18:40;16.55;;;5.57;;
43998;SDS011;51319;52.162;5.302;2022-10-29T11:21:11;16.95;;;5.15;;
43998;SDS011;51319;52.162;5.302;2022-10-29T11:24:26;16.58;;;5.88;;
43998;SDS011;51319;52.162;5.302;2022-10-29T11:26:49;19.92;;;5.32;;
43998;SDS011;51319;52.162;5.302;2022-10-29T11:37:58;13.20;;;4.78;;
43998;SDS011;51319;52.162;5.302;2022-10-29T11:43:07;12.82;;;5.22;;
43998;SDS011;51319;52.162;5.302;2022-10-29T12:05:45;17.85;;;5.45;;
43998;SDS011;51319;52.162;5.302;2022-10-29T12:08:31;16.73;;;5.55;;
43998;SDS011;51319;52.162;5.302;2022-10-29T12:13:57;23.88;;;6.25;;
43998;SDS011;51319;52.162;5.302;2022-10-29T12:16:33;20.13;;;5.15;;
43998;SDS011;51319;52.162;5.302;2022-10-29T12:25:01;18.15;;;5.68;;
43998;SDS011;51319;52.162;5.302;2022-10-29T12:27:36;16.05;;;5.85;;
43998;SDS011;51319;52.162;5.302;2022-10-29T12:30:16;18.35;;;5.28;;
43998;SDS011;51319;52.162;5.302;2022-10-29T12:41:12;13.90;;;5.13;;
43998;SDS011;51319;52.162;5.302;2022-10-29T12:43:47;21.42;;;5.57;;
43998;SDS011;51319;52.162;5.302;2022-10-29T12:46:21;17.83;;;6.05;;
43998;SDS011;51319;52.162;5.302;2022-10-29T12:49:09;19.30;;;5.57;;
43998;SDS011;51319;52.162;5.302;2022-10-29T12:52:02;13.52;;;5.57;;
43998;SDS011;51319;52.162;5.302;2022-10-29T12:54:53;19.85;;;6.35;;
43998;SDS011;51319;52.162;5.302;2022-10-29T12:57:26;24.13;;;6.85;;
43998;SDS011;51319;52.162;5.302;2022-10-29T13:02:48;20.00;;;5.85;;
43998;SDS011;51319;52.162;5.302;2022-10-29T13:21:07;17.13;;;5.55;;
43998;SDS011;51319;52.162;5.302;2022-10-29T13:23:33;22.50;;;6.43;;
43998;SDS011;51319;52.162;5.302;2022-10-29T13:26:05;20.17;;;5.72;;
43998;SDS011;51319;52.162;5.302;2022-10-29T13:38:39;22.80;;;8.25;;
43998;SDS011;51319;52.162;5.302;2022-10-29T13:41:36;15.77;;;6.18;;
43998;SDS011;51319;52.162;5.302;2022-10-29T13:46:54;22.65;;;7.20;;
43998;SDS011;51319;52.162;5.302;2022-10-29T13:49:44;21.00;;;6.43;;
43998;SDS011;51319;52.162;5.302;2022-10-29T13:52:20;15.23;;;6.40;;
43998;SDS011;51319;52.162;5.302;2022-10-29T14:00:28;22.88;;;7.57;;
43998;SDS011;51319;52.162;5.302;2022-10-29T14:02:59;24.27;;;8.43;;
43998;SDS011;51319;52.162;5.302;2022-10-29T14:05:48;22.98;;;7.45;;
43998;SDS011;51319;52.162;5.302;2022-10-29T14:08:25;29.30;;;8.77;;
43998;SDS011;51319;52.162;5.302;2022-10-29T14:11:12;21.48;;;7.03;;
43998;SDS011;51319;52.162;5.302;2022-10-29T14:13:46;23.40;;;7.28;;
43998;SDS011;51319;52.162;5.302;2022-10-29T14:16:14;26.42;;;8.20;;
43998;SDS011;51319;52.162;5.302;2022-10-29T14:18:45;23.90;;;9.57;;
43998;SDS011;51319;52.162;5.302;2022-10-29T14:21:23;19.38;;;8.90;;
43998;SDS011;51319;52.162;5.302;2022-10-29T14:26:28;26.48;;;8.48;;
43998;SDS011;51319;52.162;5.302;2022-10-29T14:29:09;21.75;;;7.72;;
43998;SDS011;51319;52.162;5.302;2022-10-29T14:31:37;24.50;;;7.35;;
43998;SDS011;51319;52.162;5.302;2022-10-29T14:34:03;22.52;;;7.75;;
43998;SDS011;51319;52.162;5.302;2022-10-29T14:36:35;18.40;;;7.65;;
43998;SDS011;51319;52.162;5.302;2022-10-29T14:39:06;22.05;;;6.97;;
43998;SDS011;51319;52.162;5.302;2022-10-29T14:42:02;33.92;;;8.43;;
43998;SDS011;51319;52.162;5.302;2022-10-29T14:44:38;21.27;;;7.90;;
43998;SDS011;51319;52.162;5.302;2022-10-29T14:47:12;13.70;;;6.75;;
43998;SDS011;51319;52.162;5.302;2022-10-29T14:50:04;25.35;;;7.22;;
43998;SDS011;51319;52.162;5.302;2022-10-29T14:55:23;22.70;;;7.47;;
43998;SDS011;51319;52.162;5.302;2022-10-29T15:00:39;23.55;;;7.32;;
43998;SDS011;51319;52.162;5.302;2022-10-29T15:03:22;22.90;;;7.25;;
43998;SDS011;51319;52.162;5.302;2022-10-29T15:05:51;17.70;;;6.60;;
43998;SDS011;51319;52.162;5.302;2022-10-29T15:08:44;18.52;;;7.53;;
43998;SDS011;51319;52.162;5.302;2022-10-29T15:11:31;22.95;;;7.75;;
43998;SDS011;51319;52.162;5.302;2022-10-29T15:14:23;25.85;;;6.93;;
43998;SDS011;51319;52.162;5.302;2022-10-29T15:16:49;19.33;;;7.90;;
43998;SDS011;51319;52.162;5.302;2022-10-29T15:19:15;29.08;;;7.57;;
43998;SDS011;51319;52.162;5.302;2022-10-29T15:21:42;31.10;;;7.43;;
43998;SDS011;51319;52.162;5.302;2022-10-29T15:24:09;18.85;;;7.38;;
43998;SDS011;51319;52.162;5.302;2022-10-29T15:27:04;16.40;;;7.38;;
43998;SDS011;51319;52.162;5.302;2022-10-29T15:29:32;15.32;;;7.45;;
43998;SDS011;51319;52.162;5.302;2022-10-29T15:32:10;32.58;;;10.65;;
43998;SDS011;51319;52.162;5.302;2022-10-29T15:35:00;23.73;;;7.57;;
43998;SDS011;51319;52.162;5.302;2022-10-29T15:39:59;32.08;;;7.63;;
43998;SDS011;51319;52.162;5.302;2022-10-29T15:42:35;20.42;;;7.47;;
43998;SDS011;51319;52.162;5.302;2022-10-29T15:47:30;22.27;;;7.85;;
43998;SDS011;51319;52.162;5.302;2022-10-29T15:49:56;22.15;;;7.68;;
43998;SDS011;51319;52.162;5.302;2022-10-29T15:52:24;25.88;;;7.75;;
43998;SDS011;51319;52.162;5.302;2022-10-29T15:54:55;17.05;;;7.70;;
43998;SDS011;51319;52.162;5.302;2022-10-29T15:57:21;24.77;;;7.55;;
43998;SDS011;51319;52.162;5.302;2022-10-29T15:59:47;25.58;;;8.10;;
43998;SDS011;51319;52.162;5.302;2022-10-29T16:02:14;22.77;;;7.82;;
43998;SDS011;51319;52.162;5.302;2022-10-29T16:04:44;22.98;;;8.00;;
43998;SDS011;51319;52.162;5.302;2022-10-29T16:07:13;26.88;;;8.98;;
43998;SDS011;51319;52.162;5.302;2022-10-29T16:09:42;23.08;;;9.75;;
43998;SDS011;51319;52.162;5.302;2022-10-29T16:12:11;28.43;;;8.00;;
43998;SDS011;51319;52.162;5.302;2022-10-29T16:14:37;24.90;;;7.72;;
43998;SDS011;51319;52.162;5.302;2022-10-29T16:17:08;24.25;;;7.97;;
43998;SDS011;51319;52.162;5.302;2022-10-29T16:19:39;23.05;;;7.80;;
43998;SDS011;51319;52.162;5.302;2022-10-29T16:22:07;21.27;;;7.85;;
43998;SDS011;51319;52.162;5.302;2022-10-29T16:24:50;22.95;;;7.93;;
43998;SDS011;51319;52.162;5.302;2022-10-29T16:27:16;26.88;;;10.10;;
43998;SDS011;51319;52.162;5.302;2022-10-29T16:29:43;19.27;;;7.82;;
43998;SDS011;51319;52.162;5.302;2022-10-29T16:32:14;24.15;;;7.40;;
43998;SDS011;51319;52.162;5.302;2022-10-29T16:34:42;25.38;;;8.95;;
43998;SDS011;51319;52.162;5.302;2022-10-29T16:37:12;27.15;;;9.02;;
43998;SDS011;51319;52.162;5.302;2022-10-29T16:39:42;27.88;;;7.53;;
43998;SDS011;51319;52.162;5.302;2022-10-29T16:42:28;23.08;;;8.38;;
43998;SDS011;51319;52.162;5.302;2022-10-29T16:44:57;27.75;;;8.60;;
43998;SDS011;51319;52.162;5.302;2022-10-29T16:47:26;27.63;;;10.02;;
43998;SDS011;51319;52.162;5.302;2022-10-29T16:49:53;27.75;;;8.90;;
43998;SDS011;51319;52.162;5.302;2022-10-29T16:52:19;20.88;;;9.13;;
43998;SDS011;51319;52.162;5.302;2022-10-29T16:54:52;17.60;;;8.38;;
43998;SDS011;51319;52.162;5.302;2022-10-29T16:57:18;26.52;;;8.73;;
43998;SDS011;51319;52.162;5.302;2022-10-29T16:59:45;21.42;;;8.20;;
43998;SDS011;51319;52.162;5.302;2022-10-29T17:02:11;27.23;;;8.43;;
43998;SDS011;51319;52.162;5.302;2022-10-29T17:04:37;31.10;;;9.23;;
43998;SDS011;51319;52.162;5.302;2022-10-29T17:07:03;21.10;;;8.63;;
43998;SDS011;51319;52.162;5.302;2022-10-29T17:09:29;23.27;;;7.93;;
43998;SDS011;51319;52.162;5.302;2022-10-29T17:12:00;20.65;;;7.82;;
43998;SDS011;51319;52.162;5.302;2022-10-29T17:14:26;22.35;;;9.40;;
43998;SDS011;51319;52.162;5.302;2022-10-29T17:16:52;23.50;;;10.30;;
43998;SDS011;51319;52.162;5.302;2022-10-29T17:19:19;21.02;;;8.98;;
43998;SDS011;51319;52.162;5.302;2022-10-29T17:21:45;29.40;;;11.07;;
43998;SDS011;51319;52.162;5.302;2022-10-29T17:24:11;27.33;;;10.32;;
43998;SDS011;51319;52.162;5.302;2022-10-29T17:26:37;23.50;;;8.77;;
43998;SDS011;51319;52.162;5.302;2022-10-29T17:29:03;22.58;;;8.05;;
43998;SDS011;51319;52.162;5.302;2022-10-29T17:31:29;26.77;;;8.73;;
43998;SDS011;51319;52.162;5.302;2022-10-29T17:33:55;21.42;;;9.52;;
43998;SDS011;51319;52.162;5.302;2022-10-29T17:36:21;23.20;;;9.05;;
43998;SDS011;51319;52.162;5.302;2022-10-29T17:38:53;26.15;;;9.38;;
43998;SDS011;51319;52.162;5.302;2022-10-29T17:41:19;23.73;;;9.07;;
43998;SDS011;51319;52.162;5.302;2022-10-29T17:43:45;20.92;;;8.85;;